Avon, Illinois
Current Conditions -  °F | °C
As of 10:15 PM on Friday 31 Oct 2014 (Local Time) from KMQB Reporting Station
Clear Clear  
Wind Chill: 19°   Ceiling: Unl
Heat Index: 27°   Visibility: 10mi
Dew Point: 21°   Wind: 8mph
Humidity: 79%   Direction: 340°NNW
Pressure: 30.45"   Gusts: NA
Location:  40.66°N, 90.43°W
Report Text: KMQB 010315Z AUTO 34007KT 10SM CLR M03/M06 A3045 RMK AO2 T10281060
Loading
Personal Weather Stations






























Interactive Weather Map New forecast layout! Learn more

10-Day Weather Forecast

Advertisements
Track Severe Weather on mobile